Fremont, MI (49413)

12:07 AM EDT on April 01, 2015 (GMT -0400)
MesoWest | | Change Station
CLOSE
Current Station
Personal Weather Station
Location: Fremont, MI
Elevation: 764 ft
Nearby Weather Stations

Elev 764 ft 43.42 °N, 85.96 °W | Updated 1 hour ago

Clear
Clear
38 °F
Feels Like 34 °F
N
5
Wind Variable Wind from West
Gusts 0.0 mph

Today
High -- | Low -- °F
--% Chance of Precip.
Yesterday
High -- | Low -- °F
Precip. -- in
7:25 AM 8:10 PM
Waxing Gibbous, 90% visible
Pressure 29.95 in
Visibility 10.0 miles
Clouds Clear
Windchill 34 °F
Dew Point 25 °F
Humidity 57%
Rainfall in
Snow Depth Not available.
UV 0 out of 12
Pollen 1.10 out of 12
Air Quality Not available.
Flu Activity Not available.
METAR KFFX 010334Z AUTO 00000KT 10SM CLR 01/M05 A2995 RMK AO2 T00141046

More Conditions Fewer Conditions

Pressure 29.95 in
Visibility 10.0 miles
Clouds Clear
Windchill 34 °F
Dew Point 25 °F
Humidity 57%
Rainfall in
Snow Depth Not available.
UV 0 out of 12
Pollen 1.10 out of 12
Air Quality Not available.
Flu Activity Not available.
METAR KFFX 010334Z AUTO 00000KT 10SM CLR 01/M05 A2995 RMK AO2 T00141046

More Conditions Fewer Conditions

10-Day Weather Forecast

Almanac

Astronomy

Apr. 01, 2015 Rise Set
Actual Time
Civil Twilight
Nautical Twilight
Astronomical Twilight
Moon
Length of Visible Light
Length of Day
Tomorrow will be .
, % of the Moon is Illuminated

Today's Extremes

State Highs State Lows

Community

WunderPhotos

Upload Photos

1,809,904 photos uploaded!

WunderBlogs® & News

Nearby

Air Quality

  Air Quality AQ Index Pollutant
Not available.

Snow Depth

Station Depth Elevation

Earthquake Activity

City Distance Mag. Time & Date
Minimum magnitude displayed is 2.5.

Coastal Water Temperatures

Place Temperature

Stations

Nearby Weather Stations

Station Location Temp. Windchill Dew Point Humidity Wind Precip. Elev Updated Type